METAR Data
IDs: Format: Raw Decoded Include TAF

Data at: 0223 UTC 25 Feb 2021

LFAQ 250200Z AUTO 16005KT CAVOK 08/06 Q1025